createdAt,value
2018-06-13T00:00:00.293Z,94.60
2018-06-13T00:02:28.698Z,94.20
2018-06-13T00:04:57.001Z,93.40
2018-06-13T00:07:25.420Z,94.30
2018-06-13T00:09:53.743Z,93.40
2018-06-13T00:12:22.148Z,94.10
2018-06-13T00:14:50.474Z,93.00
2018-06-13T00:17:18.816Z,93.80
2018-06-13T00:19:47.158Z,93.50
2018-06-13T00:22:15.589Z,93.80
2018-06-13T00:24:43.909Z,94.10
2018-06-13T00:27:12.305Z,94.60
2018-06-13T00:29:41.087Z,93.40
2018-06-13T00:32:09.424Z,94.00
2018-06-13T00:34:37.749Z,93.20
2018-06-13T00:37:06.251Z,93.60
2018-06-13T00:39:34.653Z,92.80
2018-06-13T00:44:34.029Z,93.30
2018-06-13T00:47:02.336Z,93.00
2018-06-13T00:49:30.741Z,92.70
2018-06-13T00:51:59.041Z,93.00
2018-06-13T00:59:23.797Z,93.30
2018-06-13T01:01:52.105Z,93.20
2018-06-13T01:04:20.414Z,93.10
2018-06-13T01:06:48.725Z,93.10
2018-06-13T01:09:17.090Z,93.40
2018-06-13T01:11:45.434Z,93.90
2018-06-13T01:14:13.825Z,93.60
2018-06-13T01:16:42.161Z,93.70
2018-06-13T01:19:10.494Z,94.90
2018-06-13T01:21:38.857Z,95.00
2018-06-13T01:24:07.201Z,93.40
2018-06-13T01:26:35.542Z,93.70
2018-06-13T01:29:03.999Z,94.50
2018-06-13T01:31:32.360Z,94.50
2018-06-13T01:34:00.690Z,93.60
2018-06-13T01:36:29.461Z,93.40
2018-06-13T01:38:57.796Z,93.40
2018-06-13T01:41:26.158Z,92.50
2018-06-13T01:43:54.477Z,93.40
2018-06-13T01:46:22.777Z,92.70
2018-06-13T01:48:51.093Z,92.90
2018-06-13T01:51:19.733Z,93.50
2018-06-13T01:53:48.041Z,93.60
2018-06-13T01:56:16.370Z,93.30
2018-06-13T01:58:44.829Z,93.70
2018-06-13T02:01:13.145Z,93.50
2018-06-13T02:03:41.430Z,93.40
2018-06-13T02:06:09.884Z,93.40
2018-06-13T02:08:38.173Z,94.10
2018-06-13T02:11:06.501Z,93.20
2018-06-13T02:13:35.089Z,93.20
2018-06-13T02:16:03.407Z,93.20
2018-06-13T02:18:32.386Z,93.50
2018-06-13T02:21:00.787Z,93.60
2018-06-13T02:23:29.229Z,93.90
2018-06-13T02:25:57.601Z,93.80
2018-06-13T02:28:25.980Z,94.10
2018-06-13T02:30:54.289Z,93.60
2018-06-13T02:33:22.592Z,93.50
2018-06-13T02:35:50.911Z,94.00
2018-06-13T02:38:19.274Z,94.00
2018-06-13T02:40:47.658Z,93.50
2018-06-13T02:43:16.035Z,94.30
2018-06-13T02:45:44.384Z,94.20
2018-06-13T02:48:12.813Z,93.80
2018-06-13T02:50:41.291Z,93.80
2018-06-13T02:53:09.602Z,93.80
2018-06-13T02:55:37.949Z,94.20
2018-06-13T02:58:06.898Z,93.90
2018-06-13T03:00:35.258Z,94.00
2018-06-13T03:03:03.597Z,93.60
2018-06-13T03:05:32.125Z,93.20
2018-06-13T03:08:00.573Z,93.80
2018-06-13T03:10:29.065Z,94.20
2018-06-13T03:12:57.593Z,93.50
2018-06-13T03:15:25.945Z,93.60
2018-06-13T03:17:54.245Z,94.50
2018-06-13T03:20:22.734Z,93.30
2018-06-13T03:22:51.053Z,93.70
2018-06-13T03:25:19.402Z,93.50
2018-06-13T03:27:47.825Z,93.40
2018-06-13T03:32:44.366Z,93.30
2018-06-13T03:35:12.709Z,93.60
2018-06-13T03:37:41.077Z,93.40
2018-06-13T03:40:09.449Z,93.90
2018-06-13T03:42:38.073Z,94.00
2018-06-13T03:45:06.357Z,94.50
2018-06-13T03:47:34.681Z,94.30
2018-06-13T03:50:03.046Z,93.80
2018-06-13T03:52:31.357Z,93.50
2018-06-13T03:54:59.658Z,93.50
2018-06-13T03:57:28.014Z,94.00
2018-06-13T03:59:56.356Z,94.70
2018-06-13T04:02:24.686Z,93.40
2018-06-13T04:04:53.422Z,93.30
2018-06-13T04:07:21.845Z,93.70
2018-06-13T04:09:50.173Z,92.80
2018-06-13T04:12:19.392Z,92.70
2018-06-13T04:14:47.741Z,92.60
2018-06-13T04:17:16.259Z,92.60
2018-06-13T04:19:44.706Z,93.40
2018-06-13T04:24:41.114Z,92.60
2018-06-13T04:27:09.659Z,92.80
2018-06-13T04:29:38.125Z,92.20
2018-06-13T04:32:06.557Z,92.90
2018-06-13T04:34:34.974Z,91.90
2018-06-13T04:37:03.305Z,91.90
2018-06-13T04:39:31.705Z,92.70
2018-06-13T04:42:00.688Z,92.60
2018-06-13T04:44:29.033Z,92.60
2018-06-13T04:46:57.419Z,92.40
2018-06-13T04:49:25.809Z,92.00
2018-06-13T04:51:54.406Z,92.80
2018-06-13T04:54:22.713Z,92.30
2018-06-13T04:56:51.375Z,91.60
2018-06-13T04:59:19.685Z,92.20
2018-06-13T05:01:48.146Z,92.10
2018-06-13T05:04:16.533Z,92.10
2018-06-13T05:06:45.112Z,91.70
2018-06-13T05:09:13.457Z,91.40
2018-06-13T05:11:42.043Z,91.50
2018-06-13T05:14:10.614Z,90.80
2018-06-13T05:16:38.937Z,90.50
2018-06-13T05:19:07.437Z,90.60
2018-06-13T05:24:03.865Z,90.60
2018-06-13T05:26:32.253Z,90.00
2018-06-13T05:29:00.655Z,90.30
2018-06-13T05:31:29.157Z,90.10
2018-06-13T05:33:57.592Z,90.50
2018-06-13T05:36:26.014Z,90.00
2018-06-13T05:38:54.630Z,88.80
2018-06-13T05:41:23.065Z,90.00
2018-06-13T05:46:19.585Z,89.90
2018-06-13T05:48:48.489Z,89.80
2018-06-13T05:51:16.810Z,87.80
2018-06-13T05:53:45.168Z,89.60
2018-06-13T05:56:13.733Z,87.40
2018-06-13T05:58:42.056Z,88.30
2018-06-13T06:01:10.388Z,88.80
2018-06-13T06:03:38.789Z,88.00
2018-06-13T06:08:35.165Z,86.60
2018-06-13T06:11:04.590Z,86.40
2018-06-13T06:13:32.921Z,86.90
2018-06-13T06:16:01.262Z,85.70
2018-06-13T06:18:29.889Z,85.50
2018-06-13T06:20:58.221Z,86.60
2018-06-13T06:23:26.566Z,85.80
2018-06-13T06:25:54.926Z,86.50
2018-06-13T06:28:23.233Z,85.00
2018-06-13T06:30:51.537Z,85.40
2018-06-13T06:33:20.058Z,85.40
2018-06-13T06:35:48.382Z,84.30
2018-06-13T06:38:16.682Z,83.90
2018-06-13T06:40:45.175Z,84.00
2018-06-13T06:43:13.489Z,82.80
2018-06-13T06:45:41.797Z,81.60
2018-06-13T06:48:10.178Z,81.40
2018-06-13T06:50:38.465Z,83.00
2018-06-13T06:53:07.153Z,82.40
2018-06-13T06:55:35.603Z,78.80
2018-06-13T06:58:03.969Z,80.10
2018-06-13T07:00:32.578Z,79.50
2018-06-13T07:03:00.903Z,76.80
2018-06-13T07:05:29.171Z,77.70
2018-06-13T07:07:57.446Z,79.70
2018-06-13T07:10:25.829Z,78.40
2018-06-13T07:12:54.105Z,75.90
2018-06-13T07:15:22.385Z,76.10
2018-06-13T07:17:50.828Z,75.40
2018-06-13T07:20:19.107Z,75.70
2018-06-13T07:22:47.417Z,75.20
2018-06-13T07:25:15.753Z,74.70
2018-06-13T07:27:44.028Z,73.40
2018-06-13T07:30:12.345Z,73.80
2018-06-13T07:32:40.981Z,74.50
2018-06-13T07:35:10.005Z,74.70
2018-06-13T07:37:38.335Z,69.60
2018-06-13T07:40:06.701Z,72.30
2018-06-13T07:42:34.970Z,71.90
2018-06-13T07:45:03.308Z,70.10
2018-06-13T07:47:31.617Z,72.10
2018-06-13T07:49:59.881Z,70.20
2018-06-13T07:52:28.165Z,69.80
2018-06-13T07:54:56.477Z,71.40
2018-06-13T07:57:24.794Z,71.70
2018-06-13T07:59:53.057Z,73.70
2018-06-13T08:02:21.405Z,74.10
2018-06-13T08:04:49.689Z,74.50
2018-06-13T08:07:17.965Z,75.50
2018-06-13T08:09:46.671Z,75.70
2018-06-13T08:12:15.081Z,74.30
2018-06-13T08:14:43.336Z,76.90
2018-06-13T08:17:12.978Z,78.20
2018-06-13T08:19:50.330Z,76.20
2018-06-13T08:22:25.080Z,76.40
2018-06-13T08:25:00.790Z,74.60
2018-06-13T08:33:17.059Z,73.80
2018-06-13T08:35:53.954Z,74.40
2018-06-13T08:38:34.863Z,74.90
2018-06-13T08:41:23.233Z,73.90
2018-06-13T08:44:04.696Z,73.40
2018-06-13T08:46:33.058Z,71.30
2018-06-13T08:49:01.525Z,70.40
2018-06-13T08:51:30.217Z,67.20
2018-06-13T08:53:59.273Z,66.60
2018-06-13T08:56:27.602Z,67.10
2018-06-13T08:58:56.953Z,67.30
2018-06-13T09:01:33.488Z,67.00
2018-06-13T09:04:14.050Z,65.70
2018-06-13T09:06:50.653Z,66.50
2018-06-13T09:09:20.867Z,62.60
2018-06-13T09:12:02.899Z,65.70
2018-06-13T09:14:36.352Z,64.30
2018-06-13T09:17:20.879Z,63.00
2018-06-13T09:22:49.391Z,62.10
2018-06-13T09:25:28.430Z,59.80
2018-06-13T09:28:08.108Z,62.80
2018-06-13T09:30:43.504Z,64.60
2018-06-13T09:33:16.252Z,63.90
2018-06-13T09:35:59.730Z,63.00
2018-06-13T09:38:36.982Z,61.20
2018-06-13T09:41:09.027Z,62.70
2018-06-13T09:43:51.052Z,62.70
2018-06-13T09:46:19.449Z,64.20
2018-06-13T09:48:47.752Z,62.70
2018-06-13T09:51:16.109Z,63.50
2018-06-13T09:53:44.721Z,60.90
2018-06-13T09:56:13.026Z,61.50
2018-06-13T09:58:46.995Z,61.10
2018-06-13T10:01:20.808Z,59.70
2018-06-13T10:03:49.157Z,59.20
2018-06-13T10:06:17.496Z,58.50
2018-06-13T10:08:45.858Z,59.10
2018-06-13T10:13:42.289Z,58.70
2018-06-13T10:16:11.117Z,58.90
2018-06-13T10:18:39.527Z,62.00
2018-06-13T10:21:07.825Z,61.30
2018-06-13T10:23:36.138Z,61.10
2018-06-13T10:26:05.049Z,60.40
2018-06-13T10:28:33.391Z,61.80
2018-06-13T10:31:01.805Z,61.20
2018-06-13T10:33:30.148Z,61.50
2018-06-13T10:35:59.094Z,63.00
2018-06-13T10:38:27.413Z,60.60
2018-06-13T10:45:52.182Z,62.60
2018-06-13T10:48:20.638Z,63.80
2018-06-13T10:50:48.978Z,63.30
2018-06-13T10:53:17.265Z,64.50
2018-06-13T10:55:46.098Z,65.70
2018-06-13T10:58:14.365Z,65.90
2018-06-13T11:00:42.701Z,64.90
2018-06-13T11:03:11.170Z,64.60
2018-06-13T11:05:39.463Z,64.20
2018-06-13T11:08:07.794Z,63.30
2018-06-13T11:10:36.129Z,63.80
2018-06-13T11:13:04.465Z,61.70
2018-06-13T11:15:32.754Z,62.70
2018-06-13T11:18:01.158Z,60.90
2018-06-13T11:20:29.543Z,61.60
2018-06-13T11:22:57.895Z,61.30
2018-06-13T11:25:26.452Z,60.70
2018-06-13T11:27:54.786Z,57.80
2018-06-13T11:30:23.106Z,57.60
2018-06-13T11:32:51.429Z,57.90
2018-06-13T11:35:19.735Z,59.00
2018-06-13T11:40:16.682Z,57.00
2018-06-13T11:42:45.058Z,57.40
2018-06-13T11:45:13.380Z,58.80
2018-06-13T11:47:41.745Z,58.30
2018-06-13T11:50:10.077Z,58.90
2018-06-13T11:52:38.369Z,58.10
2018-06-13T11:55:06.816Z,57.50
2018-06-13T11:57:35.202Z,57.30
2018-06-13T12:00:03.866Z,56.30
2018-06-13T12:02:32.232Z,58.10
2018-06-13T12:07:28.890Z,61.60
2018-06-13T12:09:57.326Z,64.10
2018-06-13T12:12:25.783Z,63.50
2018-06-13T12:14:54.216Z,63.10
2018-06-13T12:17:23.061Z,62.80
2018-06-13T12:19:51.411Z,63.20
2018-06-13T12:22:19.697Z,64.50
2018-06-13T12:24:48.137Z,65.80
2018-06-13T12:27:16.518Z,66.20
2018-06-13T12:29:44.831Z,66.00
2018-06-13T12:32:14.113Z,67.40
2018-06-13T12:34:44.082Z,66.80
2018-06-13T12:37:12.434Z,65.90
2018-06-13T12:39:40.837Z,64.20
2018-06-13T12:42:09.553Z,65.70
2018-06-13T12:44:37.950Z,64.40
2018-06-13T12:47:06.367Z,64.00
2018-06-13T12:49:34.724Z,65.00
2018-06-13T12:52:03.446Z,67.00
2018-06-13T12:54:31.808Z,64.90
2018-06-13T12:57:00.134Z,65.50
2018-06-13T12:59:28.917Z,63.40
2018-06-13T13:01:57.366Z,64.80
2018-06-13T13:04:25.673Z,63.30
2018-06-13T13:06:54.929Z,60.20
2018-06-13T13:09:23.217Z,61.70
2018-06-13T13:11:52.110Z,60.70
2018-06-13T13:14:20.642Z,61.50
2018-06-13T13:16:49.020Z,62.80
2018-06-13T13:19:17.355Z,63.00
2018-06-13T13:21:45.681Z,59.90
2018-06-13T13:24:14.102Z,61.60
2018-06-13T13:26:42.426Z,59.20
2018-06-13T13:29:10.780Z,60.80
2018-06-13T13:31:39.105Z,61.10
2018-06-13T13:34:07.477Z,60.40
2018-06-13T13:39:05.874Z,63.50
2018-06-13T13:41:34.654Z,62.40
2018-06-13T13:44:03.113Z,64.00
2018-06-13T13:46:32.455Z,64.40
2018-06-13T13:49:00.806Z,65.10
2018-06-13T13:53:57.367Z,63.30
2018-06-13T13:56:26.578Z,64.40
2018-06-13T13:58:55.470Z,65.00
2018-06-13T14:01:23.821Z,64.70
2018-06-13T14:03:53.097Z,64.10
2018-06-13T14:06:22.022Z,65.20
2018-06-13T14:08:50.430Z,64.90
2018-06-13T14:11:18.742Z,63.20
2018-06-13T14:13:47.695Z,62.10
2018-06-13T14:18:44.289Z,61.20
2018-06-13T14:21:13.009Z,60.70
2018-06-13T14:23:41.349Z,60.40
2018-06-13T14:26:09.876Z,59.20
2018-06-13T14:28:38.221Z,58.20
2018-06-13T14:31:06.550Z,59.30
2018-06-13T14:33:34.913Z,59.50
2018-06-13T14:36:03.411Z,59.40
2018-06-13T14:38:31.701Z,59.90
2018-06-13T14:41:00.048Z,62.10
2018-06-13T14:43:28.474Z,59.80
2018-06-13T14:45:56.823Z,60.20
2018-06-13T14:48:25.217Z,61.70
2018-06-13T14:50:53.574Z,60.50
2018-06-13T14:53:21.981Z,62.00
2018-06-13T14:55:57.740Z,58.80
2018-06-13T14:58:26.354Z,59.70
2018-06-13T15:00:54.863Z,58.20
2018-06-13T15:03:23.378Z,56.90
2018-06-13T15:05:51.712Z,58.40
2018-06-13T15:08:20.186Z,57.70
2018-06-13T15:10:48.753Z,59.50
2018-06-13T15:13:17.195Z,59.20
2018-06-13T15:15:45.714Z,60.00
2018-06-13T15:18:14.167Z,58.00
2018-06-13T15:23:10.646Z,59.20
2018-06-13T15:25:39.001Z,59.20
2018-06-13T15:28:07.359Z,59.60
2018-06-13T15:33:05.003Z,62.10
2018-06-13T15:35:33.314Z,60.20
2018-06-13T15:38:02.409Z,59.60
2018-06-13T15:42:58.905Z,61.10
2018-06-13T15:45:27.734Z,60.00
2018-06-13T15:47:56.284Z,60.20
2018-06-13T15:50:24.761Z,59.90
2018-06-13T15:52:53.086Z,62.10
2018-06-13T15:55:21.447Z,59.90
2018-06-13T15:57:49.806Z,61.70
2018-06-13T16:00:18.133Z,61.50
2018-06-13T16:05:14.630Z,61.50
2018-06-13T16:07:42.999Z,61.10
2018-06-13T16:10:11.337Z,62.80
2018-06-13T16:15:07.782Z,62.10
2018-06-13T16:17:37.033Z,64.20
2018-06-13T16:20:05.602Z,62.00
2018-06-13T16:22:34.088Z,61.50
2018-06-13T16:25:02.422Z,61.40
2018-06-13T16:27:30.753Z,61.40
2018-06-13T16:29:59.211Z,60.60
2018-06-13T16:32:27.830Z,61.40
2018-06-13T16:34:56.158Z,62.20
2018-06-13T16:37:25.129Z,59.90
2018-06-13T16:39:53.489Z,59.30
2018-06-13T16:42:21.896Z,59.10
2018-06-13T16:44:50.249Z,59.20
2018-06-13T16:47:18.734Z,58.90
2018-06-13T16:49:47.071Z,60.00
2018-06-13T16:52:27.570Z,60.30
2018-06-13T16:55:19.948Z,61.80
2018-06-13T17:00:17.550Z,60.30
2018-06-13T17:02:45.985Z,59.40
2018-06-13T17:05:14.817Z,58.80
2018-06-13T17:07:43.450Z,58.10
2018-06-13T17:10:11.749Z,57.30
2018-06-13T17:12:40.361Z,59.00
2018-06-13T17:15:08.704Z,56.60
2018-06-13T17:17:37.894Z,57.10
2018-06-13T17:20:11.307Z,56.90
2018-06-13T17:22:39.703Z,56.80
2018-06-13T17:25:08.013Z,58.40
2018-06-13T17:27:36.599Z,57.90
2018-06-13T17:32:33.866Z,58.20
2018-06-13T17:35:10.875Z,58.30
2018-06-13T17:37:39.882Z,58.40
2018-06-13T17:40:08.214Z,59.30
2018-06-13T17:42:36.695Z,60.40
2018-06-13T17:45:06.599Z,61.40
2018-06-13T17:50:03.027Z,59.70
2018-06-13T17:52:31.358Z,61.30
2018-06-13T17:54:59.701Z,61.90
2018-06-13T17:57:28.423Z,62.30
2018-06-13T17:59:56.707Z,61.40
2018-06-13T18:02:25.043Z,61.90
2018-06-13T18:04:53.590Z,61.70
2018-06-13T18:07:21.982Z,62.60
2018-06-13T18:09:50.329Z,63.50
2018-06-13T18:12:19.401Z,64.80
2018-06-13T18:14:48.621Z,66.50
2018-06-13T18:17:17.797Z,67.40
2018-06-13T18:19:46.290Z,66.90
2018-06-13T18:22:14.602Z,67.60
2018-06-13T18:24:43.389Z,68.70
2018-06-13T18:27:11.841Z,68.60
2018-06-13T18:29:40.278Z,69.30
2018-06-13T18:32:08.573Z,67.60
2018-06-13T18:34:37.011Z,68.00
2018-06-13T18:37:05.378Z,69.00
2018-06-13T18:39:33.747Z,69.70
2018-06-13T18:42:05.840Z,68.90
2018-06-13T18:44:34.193Z,67.50
2018-06-13T18:47:02.894Z,68.20
2018-06-13T18:49:32.058Z,68.80
2018-06-13T18:52:00.404Z,69.00
2018-06-13T18:54:28.802Z,68.80
2018-06-13T18:56:57.209Z,68.40
2018-06-13T18:59:26.149Z,70.10
2018-06-13T19:01:55.421Z,70.60
2018-06-13T19:04:23.978Z,70.40
2018-06-13T19:06:52.345Z,71.90
2018-06-13T19:09:20.673Z,70.60
2018-06-13T19:11:49.030Z,71.40
2018-06-13T19:14:17.402Z,71.60
2018-06-13T19:16:45.730Z,72.50
2018-06-13T19:19:14.232Z,72.70
2018-06-13T19:21:42.553Z,74.20
2018-06-13T19:24:10.889Z,75.00
2018-06-13T19:26:39.549Z,75.10
2018-06-13T19:29:07.846Z,75.90
2018-06-13T19:31:36.117Z,76.60
2018-06-13T19:34:04.647Z,76.10
2018-06-13T19:36:33.038Z,76.20
2018-06-13T19:39:03.822Z,76.70
2018-06-13T19:41:32.146Z,77.30
2018-06-13T19:44:00.438Z,77.00
2018-06-13T19:46:28.770Z,78.50
2018-06-13T19:48:58.185Z,77.60
2018-06-13T19:54:00.602Z,79.00
2018-06-13T19:56:30.247Z,79.30
2018-06-13T19:58:58.658Z,78.70
2018-06-13T20:01:27.145Z,78.70
2018-06-13T20:04:02.074Z,78.00
2018-06-13T20:06:30.646Z,78.00
2018-06-13T20:08:59.041Z,78.10
2018-06-13T20:11:27.472Z,78.20
2018-06-13T20:14:02.632Z,78.30
2018-06-13T20:16:47.971Z,78.30
2018-06-13T20:19:21.494Z,79.30
2018-06-13T20:21:49.798Z,79.90
2018-06-13T20:26:52.190Z,79.50
2018-06-13T20:29:25.841Z,80.30
2018-06-13T20:31:54.206Z,80.20
2018-06-13T20:34:22.541Z,80.60
2018-06-13T20:36:50.866Z,80.20
2018-06-13T20:39:19.229Z,81.30
2018-06-13T20:41:47.794Z,82.00
2018-06-13T20:44:16.137Z,82.60
2018-06-13T20:46:44.515Z,82.60
2018-06-13T20:49:13.136Z,82.60
2018-06-13T20:51:41.549Z,82.50
2018-06-13T20:54:12.077Z,82.90
2018-06-13T20:56:41.107Z,82.90
2018-06-13T20:59:09.445Z,83.30
2018-06-13T21:01:38.334Z,83.60
2018-06-13T21:04:07.164Z,83.90
2018-06-13T21:06:35.765Z,84.00
2018-06-13T21:11:34.112Z,84.20
2018-06-13T21:14:02.530Z,84.20
2018-06-13T21:16:30.894Z,84.40
2018-06-13T21:18:59.263Z,84.80
2018-06-13T21:21:27.895Z,85.10
2018-06-13T21:23:56.269Z,85.40
2018-06-13T21:26:25.179Z,84.60
2018-06-13T21:28:53.566Z,85.10
2018-06-13T21:31:22.706Z,86.40
2018-06-13T21:33:51.050Z,86.20
2018-06-13T21:36:19.336Z,86.20
2018-06-13T21:38:48.009Z,86.00
2018-06-13T21:41:16.285Z,85.20
2018-06-13T21:43:44.720Z,85.20
2018-06-13T21:46:13.113Z,85.80
2018-06-13T21:48:41.417Z,86.70
2018-06-13T21:51:09.737Z,87.10
2018-06-13T21:53:38.913Z,87.20
2018-06-13T21:56:07.224Z,87.10
2018-06-13T21:58:35.542Z,87.40
2018-06-13T22:01:03.830Z,87.80
2018-06-13T22:03:32.277Z,87.90
2018-06-13T22:06:00.626Z,88.00
2018-06-13T22:08:29.102Z,88.60
2018-06-13T22:10:57.734Z,88.60
2018-06-13T22:13:26.162Z,88.30
2018-06-13T22:15:56.194Z,88.90
2018-06-13T22:18:24.515Z,89.10
2018-06-13T22:20:52.792Z,89.50
2018-06-13T22:23:22.013Z,89.20
2018-06-13T22:25:50.357Z,89.70
2018-06-13T22:28:18.754Z,90.10
2018-06-13T22:30:47.086Z,90.20
2018-06-13T22:33:15.429Z,90.10
2018-06-13T22:35:43.821Z,90.20
2018-06-13T22:38:12.234Z,90.30
2018-06-13T22:40:40.591Z,90.60
2018-06-13T22:43:11.217Z,90.50
2018-06-13T22:45:40.601Z,90.20
2018-06-13T22:48:09.297Z,90.60
2018-06-13T22:50:37.698Z,90.10
2018-06-13T22:53:06.886Z,90.10
2018-06-13T22:55:35.357Z,90.60
2018-06-13T22:58:03.874Z,90.40
2018-06-13T23:00:39.590Z,89.40
2018-06-13T23:03:07.914Z,90.00
2018-06-13T23:05:36.345Z,89.40
2018-06-13T23:08:04.985Z,90.10
2018-06-13T23:10:33.325Z,89.50
2018-06-13T23:13:01.674Z,90.00
2018-06-13T23:15:30.046Z,89.60
2018-06-13T23:17:58.776Z,87.30
2018-06-13T23:20:27.435Z,89.20
2018-06-13T23:22:56.112Z,89.70
2018-06-13T23:25:24.837Z,90.00
2018-06-13T23:27:53.230Z,89.60
2018-06-13T23:30:21.881Z,90.30
2018-06-13T23:32:50.196Z,90.30
2018-06-13T23:35:18.538Z,90.10
2018-06-13T23:37:46.941Z,90.10
2018-06-13T23:40:15.315Z,90.00
2018-06-13T23:42:43.645Z,89.80
2018-06-13T23:45:12.141Z,89.90
2018-06-13T23:47:40.465Z,89.70
2018-06-13T23:50:08.881Z,90.00
2018-06-13T23:52:37.245Z,89.10
2018-06-13T23:55:05.630Z,89.90
2018-06-13T23:57:34.044Z,90.00
